KDAN

Danville Regional Airport

Danville, Virginia, USA
METAR KDAN 230753Z AUTO 23004KT 10SM FEW100 SCT120 20/20 A3002 RMK AO2 SLP156 T02000200
Observed Flight Rules
May-23 @ 07:53 UTC (58 minutes ago) Visual Flight Rules
Wind Visibility Clouds
230° at 4 knots 10 miles
  • Few at 10,000' AGL
  • Scattered at 12,000' AGL
Temperatures Readings
Current 20°C / 68°F
Dewpoint 20°C / 68°F
Humidity 100%
Altimeter 30.02" Hg
Pressure 1015.6 hPa
Elevation 175
METAR KDAN 230753Z AUTO 23004KT 10SM FEW100 SCT120 20/20 A3002 RMK AO2 SLP156 T02000200
Observed Flight Rules
May-23 @ 07:53 UTC
(58 minutes ago)
VFR
Wind Visibility
230° at 4 knots 10 miles
Clouds
  • Few at 10,000' AGL
  • Scattered at 12,000' AGL
Temperature Dewpoint
20°C / 68°F 20°C / 68°F
Humidity Altimeter Pressure
100% 30.02" Hg 1015.6 hPa